This is the latest recevied weather packets stored in our database for station/object F5SHG-3. If no packets are shown the sender has not sent any weather packets the latest 10 day(s).
| Time | Temp. | Humidity | Pressure | Rain* | Wind** | Luminosity | Snow |
|---|---|---|---|---|---|---|---|
| 1777200318 | 26.11° C | 39% | 1021.3 hPa | - | - | - | - |
| 1777199426 | 24.44° C | 43% | 1021.3 hPa | - | - | - | - |
| 1777199417 | 24.44° C | 43% | 1021.3 hPa | - | - | - | - |
| 1777198522 | 24.44° C | 43% | 1021.5 hPa | - | - | - | - |
| 1777198516 | 24.44° C | 43% | 1021.5 hPa | - | - | - | - |
| 1777197626 | 22.78° C | 47% | 1021.7 hPa | - | - | - | - |
| 1777197615 | 22.78° C | 47% | 1021.7 hPa | - | - | - | - |
| 1777196747 | 22.22° C | 48% | 1021.7 hPa | - | - | - | - |
| 1777196733 | 22.22° C | 48% | 1021.7 hPa | - | - | - | - |
| 1777195833 | 21.67° C | 51% | 1021.8 hPa | - | - | - | - |
| 1777194938 | 20.56° C | 53% | 1021.8 hPa | - | - | - | - |
| 1777194931 | 20.56° C | 53% | 1021.8 hPa | - | - | - | - |
| 1777194043 | 20° C | 56% | 1021.8 hPa | - | - | - | - |
| 1777194028 | 20° C | 56% | 1021.8 hPa | - | - | - | - |
| 1777193138 | 18.89° C | 58% | 1021.8 hPa | - | - | - | - |
| 1777193128 | 18.89° C | 58% | 1021.8 hPa | - | - | - | - |
| 1777191332 | 16.67° C | 64% | 1021.8 hPa | - | - | - | - |
| 1777190424 | 16.11° C | 64% | 1021.7 hPa | - | - | - | - |
| 1777189524 | 15.56° C | 65% | 1021.7 hPa | - | - | - | - |
| 1777188632 | 15° C | 66% | 1021.8 hPa | - | - | - | - |
| 1777188624 | 15° C | 66% | 1021.8 hPa | - | - | - | - |
| 1777187724 | 15° C | 65% | 1021.8 hPa | - | - | - | - |
| 1777186823 | 14.44° C | 66% | 1021.6 hPa | - | - | - | - |
| 1777185927 | 14.44° C | 66% | 1021.7 hPa | - | - | - | - |
| 1777185040 | 14.44° C | 66% | 1021.6 hPa | - | - | - | - |
* Rain since midnight (hover to see other rain measurements)
** Current wind speed in m/s (hover to see current wind gust speed)